Time;durP1;ratioP1;P1;durP2;ratioP2;P2;SDS_P1;SDS_P2;PMS_P1;PMS_P2;Temp;Humidity;BMP_temperature;BMP_pressure;BME280_temperature;BME280_humidity;BME280_pressure;Samples;Min_cycle;Max_cycle;Signal;HPM_P1;HPM_P2
2021/12/30 00:00:24;;;;;;;61.11;26.47;;;;;;;;;;354378;149;863457;-58
2021/12/30 00:01:28;;;;;;;74.84;28.23;;;;;;;;;;354834;150;866239;-58
2021/12/30 00:02:31;;;;;;;74.91;27.80;;;;;;;;;;355255;150;859111;-58
2021/12/30 00:03:32;;;;;;;69.91;28.09;;;;;;;;;;353880;149;857194;-58
2021/12/30 00:04:34;;;;;;;72.39;27.44;;;;;;;;;;356223;150;857313;-60
2021/12/30 00:05:35;;;;;;;76.36;30.46;;;;;;;;;;356382;150;865021;-60
2021/12/30 00:06:41;;;;;;;77.42;28.01;;;;;;;;;;356928;149;857406;-57
2021/12/30 00:07:42;;;;;;;70.75;28.78;;;;;;;;;;352665;149;864473;-59
2021/12/30 00:08:44;;;;;;;70.16;27.14;;;;;;;;;;355049;150;858624;-58
2021/12/30 00:09:46;;;;;;;69.39;25.08;;;;;;;;;;355604;150;865615;-60
2021/12/30 00:10:48;;;;;;;55.31;24.43;;;;;;;;;;355579;149;856851;-60
2021/12/30 00:11:49;;;;;;;71.08;26.86;;;;;;;;;;353628;150;857398;-60
2021/12/30 00:12:52;;;;;;;59.64;26.12;;;;;;;;;;354081;150;861657;-58
2021/12/30 00:13:55;;;;;;;64.15;27.36;;;;;;;;;;355273;149;859030;-60
2021/12/30 00:14:56;;;;;;;66.07;27.34;;;;;;;;;;352569;149;858929;-58
2021/12/30 00:15:58;;;;;;;66.99;28.30;;;;;;;;;;352933;150;857504;-58
2021/12/30 00:16:59;;;;;;;64.19;27.16;;;;;;;;;;351931;150;866158;-58
2021/12/30 00:18:02;;;;;;;66.42;27.54;;;;;;;;;;355507;149;858770;-59
2021/12/30 00:19:03;;;;;;;66.38;27.91;;;;;;;;;;354601;150;864369;-58
2021/12/30 00:20:06;;;;;;;76.77;29.85;;;;;;;;;;344289;154;866039;-58
2021/12/30 00:21:07;;;;;;;69.67;28.05;;;;;;;;;;357365;149;864690;-58
2021/12/30 00:22:09;;;;;;;70.22;28.34;;;;;;;;;;357303;149;859008;-58
2021/12/30 00:23:11;;;;;;;69.05;28.45;;;;;;;;;;355291;150;865476;-58
2021/12/30 00:24:12;;;;;;;62.82;28.70;;;;;;;;;;355051;150;857749;-58
2021/12/30 00:25:15;;;;;;;60.71;27.72;;;;;;;;;;355901;149;857280;-59
2021/12/30 00:26:17;;;;;;;71.24;27.28;;;;;;;;;;354996;150;858257;-59
2021/12/30 00:27:19;;;;;;;61.32;28.00;;;;;;;;;;352363;151;858296;-59
2021/12/30 00:28:21;;;;;;;62.49;27.42;;;;;;;;;;357177;150;858572;-59
2021/12/30 00:29:24;;;;;;;67.96;27.84;;;;;;;;;;355935;149;864929;-59
2021/12/30 00:30:26;;;;;;;63.30;26.73;;;;;;;;;;355612;150;859356;-59
2021/12/30 00:31:27;;;;;;;65.36;28.39;;;;;;;;;;356413;150;867350;-58
2021/12/30 00:32:29;;;;;;;76.73;28.81;;;;;;;;;;356657;149;857100;-59
2021/12/30 00:33:34;;;;;;;68.03;28.11;;;;;;;;;;354148;150;857176;-59
2021/12/30 00:34:33;;;;;;;66.39;27.66;;;;;;;;;;352611;150;859969;-59
2021/12/30 00:35:35;;;;;;;60.85;27.54;;;;;;;;;;357085;149;859288;-58
2021/12/30 00:36:37;;;;;;;65.17;26.29;;;;;;;;;;353180;150;865124;-58
2021/12/30 00:37:38;;;;;;;65.70;27.59;;;;;;;;;;352675;150;857369;-58
2021/12/30 00:38:41;;;;;;;66.01;26.75;;;;;;;;;;354787;150;865109;-58
2021/12/30 00:39:43;;;;;;;67.29;27.56;;;;;;;;;;355627;149;866118;-58
2021/12/30 00:40:44;;;;;;;65.39;27.25;;;;;;;;;;357317;149;857792;-59
2021/12/30 00:41:46;;;;;;;61.25;26.81;;;;;;;;;;353712;150;865106;-59
2021/12/30 00:42:48;;;;;;;64.99;28.29;;;;;;;;;;354496;149;856254;-59
2021/12/30 00:43:49;;;;;;;62.76;25.46;;;;;;;;;;354992;149;865082;-59
2021/12/30 00:44:51;;;;;;;63.94;26.54;;;;;;;;;;353729;149;857279;-59
2021/12/30 00:45:52;;;;;;;63.38;27.11;;;;;;;;;;354289;149;866453;-58
2021/12/30 00:46:57;;;;;;;61.15;25.49;;;;;;;;;;356138;149;857224;-59
2021/12/30 00:47:57;;;;;;;64.61;26.45;;;;;;;;;;354004;150;858869;-59
2021/12/30 00:48:59;;;;;;;66.55;26.62;;;;;;;;;;357277;150;857208;-58
2021/12/30 00:50:01;;;;;;;60.66;26.34;;;;;;;;;;356392;150;864929;-58
2021/12/30 00:51:02;;;;;;;70.01;26.05;;;;;;;;;;356754;149;865644;-58
2021/12/30 00:52:04;;;;;;;58.66;26.84;;;;;;;;;;355638;150;865926;-58
2021/12/30 00:53:06;;;;;;;65.61;27.56;;;;;;;;;;349406;152;865436;-58
2021/12/30 00:54:08;;;;;;;59.03;25.36;;;;;;;;;;349956;150;859519;-59
2021/12/30 00:55:09;;;;;;;72.96;28.44;;;;;;;;;;357262;149;858641;-59
2021/12/30 00:56:11;;;;;;;67.63;25.31;;;;;;;;;;357502;150;858616;-59
2021/12/30 00:57:13;;;;;;;64.05;26.36;;;;;;;;;;356928;149;857391;-60
2021/12/30 00:58:15;;;;;;;65.43;25.36;;;;;;;;;;354584;149;857220;-59
2021/12/30 00:59:16;;;;;;;64.11;25.21;;;;;;;;;;354538;150;858971;-61
2021/12/30 01:00:19;;;;;;;57.53;25.46;;;;;;;;;;352836;150;862196;-61
2021/12/30 01:01:20;;;;;;;62.67;25.93;;;;;;;;;;357112;149;857758;-61
2021/12/30 01:02:24;;;;;;;60.20;25.23;;;;;;;;;;356298;150;860680;-57
2021/12/30 01:03:25;;;;;;;53.57;24.87;;;;;;;;;;357379;150;856211;-59
2021/12/30 01:04:27;;;;;;;63.04;25.49;;;;;;;;;;355618;149;857316;-59
2021/12/30 01:05:28;;;;;;;54.49;25.07;;;;;;;;;;355273;149;858922;-59
2021/12/30 01:06:30;;;;;;;60.50;25.12;;;;;;;;;;352630;150;858112;-59
2021/12/30 01:07:31;;;;;;;64.61;27.56;;;;;;;;;;353614;150;866940;-59
2021/12/30 01:08:33;;;;;;;56.64;25.49;;;;;;;;;;354317;149;860540;-59
2021/12/30 01:09:35;;;;;;;64.41;25.61;;;;;;;;;;357082;149;862968;-58
2021/12/30 01:10:36;;;;;;;61.34;25.31;;;;;;;;;;354931;150;863829;-59
2021/12/30 01:11:38;;;;;;;67.27;26.06;;;;;;;;;;354358;150;864730;-58
2021/12/30 01:12:39;;;;;;;61.43;26.31;;;;;;;;;;354563;149;857346;-59
2021/12/30 01:13:44;;;;;;;63.76;27.90;;;;;;;;;;352713;150;857361;-59
2021/12/30 01:14:46;;;;;;;63.03;24.98;;;;;;;;;;355652;150;859521;-59
2021/12/30 01:15:57;;;;;;;69.31;27.79;;;;;;;;;;356464;150;857367;-59
2021/12/30 01:16:56;;;;;;;62.74;25.26;;;;;;;;;;356787;149;857475;-59
2021/12/30 01:18:10;;;;;;;61.21;26.44;;;;;;;;;;353937;150;866493;-59
2021/12/30 01:20:20;;;;;;;57.00;25.12;;;;;;;;;;356004;149;860442;-60
2021/12/30 01:21:23;;;;;;;59.43;25.74;;;;;;;;;;356223;150;858334;-59
2021/12/30 01:22:25;;;;;;;69.51;25.87;;;;;;;;;;356177;150;865194;-59
2021/12/30 01:23:27;;;;;;;64.91;25.92;;;;;;;;;;356313;149;865617;-58
2021/12/30 01:24:28;;;;;;;65.53;25.55;;;;;;;;;;354890;150;857637;-59
2021/12/30 01:25:30;;;;;;;63.74;25.37;;;;;;;;;;354963;150;857257;-59
2021/12/30 01:26:32;;;;;;;63.32;26.30;;;;;;;;;;356541;149;857171;-59
2021/12/30 01:27:36;;;;;;;64.61;25.60;;;;;;;;;;355768;149;857252;-58
2021/12/30 01:28:38;;;;;;;70.18;27.22;;;;;;;;;;357181;150;857636;-59
2021/12/30 01:29:40;;;;;;;66.25;26.75;;;;;;;;;;358074;150;859376;-59
2021/12/30 01:30:41;;;;;;;62.65;27.07;;;;;;;;;;355141;149;857311;-59
2021/12/30 01:31:43;;;;;;;67.91;26.86;;;;;;;;;;355437;150;857409;-58
2021/12/30 01:32:44;;;;;;;61.20;25.74;;;;;;;;;;355924;150;857237;-59
2021/12/30 01:33:47;;;;;;;62.61;27.09;;;;;;;;;;357082;149;857669;-59
2021/12/30 01:34:48;;;;;;;67.97;28.18;;;;;;;;;;353248;149;866874;-59
2021/12/30 01:35:50;;;;;;;67.11;27.11;;;;;;;;;;356748;150;865121;-59
2021/12/30 01:36:52;;;;;;;67.21;28.26;;;;;;;;;;355209;150;856781;-59
2021/12/30 01:37:59;;;;;;;67.17;26.21;;;;;;;;;;356015;149;866737;-58
2021/12/30 01:39:00;;;;;;;68.23;28.77;;;;;;;;;;354698;150;863997;-59
2021/12/30 01:40:02;;;;;;;62.23;27.80;;;;;;;;;;355207;150;858151;-58
2021/12/30 01:41:04;;;;;;;65.35;30.27;;;;;;;;;;355630;150;864568;-59
2021/12/30 01:42:06;;;;;;;65.83;27.11;;;;;;;;;;355570;149;857259;-57
2021/12/30 01:43:09;;;;;;;72.09;29.55;;;;;;;;;;353600;150;857310;-59
2021/12/30 01:44:11;;;;;;;70.04;27.61;;;;;;;;;;357477;150;857699;-59
2021/12/30 01:45:13;;;;;;;77.73;30.69;;;;;;;;;;357015;149;857328;-59
2021/12/30 01:46:15;;;;;;;77.59;29.67;;;;;;;;;;354216;149;857237;-59
2021/12/30 01:47:17;;;;;;;73.21;29.23;;;;;;;;;;353253;150;857384;-59
2021/12/30 01:48:20;;;;;;;77.97;30.50;;;;;;;;;;355725;149;857274;-59
2021/12/30 01:49:23;;;;;;;75.48;29.96;;;;;;;;;;354584;149;858169;-59
2021/12/30 01:50:24;;;;;;;74.45;29.65;;;;;;;;;;351366;150;857674;-59
2021/12/30 01:51:26;;;;;;;72.26;29.66;;;;;;;;;;355398;150;858679;-59
2021/12/30 01:52:27;;;;;;;71.09;28.58;;;;;;;;;;354232;149;865792;-59
2021/12/30 01:53:29;;;;;;;71.96;28.14;;;;;;;;;;356724;150;859493;-59
2021/12/30 01:54:31;;;;;;;64.63;28.14;;;;;;;;;;356045;150;859612;-59
2021/12/30 01:55:33;;;;;;;78.58;29.73;;;;;;;;;;356511;150;865140;-59
2021/12/30 01:56:35;;;;;;;70.66;28.62;;;;;;;;;;355978;149;864799;-59
2021/12/30 01:57:36;;;;;;;71.74;28.61;;;;;;;;;;357958;150;857209;-59
2021/12/30 01:58:38;;;;;;;75.06;30.51;;;;;;;;;;354924;150;866735;-59
2021/12/30 01:59:39;;;;;;;72.52;29.55;;;;;;;;;;356574;149;857249;-59
2021/12/30 02:00:42;;;;;;;70.36;30.09;;;;;;;;;;353032;150;857189;-60
2021/12/30 02:01:45;;;;;;;72.45;30.81;;;;;;;;;;356561;150;866181;-61
2021/12/30 02:02:47;;;;;;;79.53;30.66;;;;;;;;;;356373;149;864116;-61
2021/12/30 02:03:48;;;;;;;69.14;30.54;;;;;;;;;;356685;149;857380;-57
2021/12/30 02:04:52;;;;;;;72.46;29.96;;;;;;;;;;352479;150;867200;-60
2021/12/30 02:05:53;;;;;;;65.44;28.16;;;;;;;;;;353112;150;858821;-60
2021/12/30 02:06:55;;;;;;;65.73;26.98;;;;;;;;;;350422;150;857158;-59
2021/12/30 02:07:57;;;;;;;68.19;26.99;;;;;;;;;;348972;151;866436;-59
2021/12/30 02:09:00;;;;;;;72.77;27.99;;;;;;;;;;354607;151;865583;-59
2021/12/30 02:10:02;;;;;;;71.91;29.89;;;;;;;;;;352304;150;858618;-59
2021/12/30 02:11:04;;;;;;;73.73;27.22;;;;;;;;;;351674;151;857706;-58
2021/12/30 02:12:06;;;;;;;70.26;28.38;;;;;;;;;;352281;151;858386;-59
2021/12/30 02:13:08;;;;;;;63.05;27.28;;;;;;;;;;349737;151;857692;-58
2021/12/30 02:14:10;;;;;;;69.21;28.19;;;;;;;;;;352659;150;858801;-58
2021/12/30 02:15:13;;;;;;;67.96;28.06;;;;;;;;;;352600;149;859753;-59
2021/12/30 02:16:16;;;;;;;66.85;27.98;;;;;;;;;;347558;155;865045;-61
2021/12/30 02:17:18;;;;;;;64.77;28.49;;;;;;;;;;353319;150;857654;-59
2021/12/30 02:18:22;;;;;;;72.31;28.10;;;;;;;;;;351071;150;865625;-58
2021/12/30 02:19:23;;;;;;;62.81;29.30;;;;;;;;;;353261;151;865521;-58
2021/12/30 02:20:40;;;;;;;71.84;28.34;;;;;;;;;;352773;150;856189;-58
2021/12/30 02:21:41;;;;;;;65.27;26.79;;;;;;;;;;350827;150;865712;-60
2021/12/30 02:22:43;;;;;;;66.74;27.04;;;;;;;;;;353540;151;858772;-58
2021/12/30 02:23:44;;;;;;;66.58;26.75;;;;;;;;;;350346;151;865104;-58
2021/12/30 02:24:46;;;;;;;70.67;27.42;;;;;;;;;;353830;150;857424;-58
2021/12/30 02:25:48;;;;;;;72.99;28.25;;;;;;;;;;352734;151;857420;-58
2021/12/30 02:26:51;;;;;;;77.00;28.87;;;;;;;;;;349101;154;857434;-58
2021/12/30 02:27:53;;;;;;;72.16;28.76;;;;;;;;;;352034;151;857239;-58
2021/12/30 02:28:55;;;;;;;71.43;28.76;;;;;;;;;;354460;150;857603;-58
2021/12/30 02:29:56;;;;;;;66.21;27.49;;;;;;;;;;354141;151;866292;-58
2021/12/30 02:30:59;;;;;;;65.36;28.44;;;;;;;;;;353075;150;861302;-58
2021/12/30 02:32:00;;;;;;;67.07;27.75;;;;;;;;;;352980;151;865600;-58
2021/12/30 02:33:02;;;;;;;71.58;28.82;;;;;;;;;;352909;150;858227;-58
2021/12/30 02:34:03;;;;;;;63.44;28.25;;;;;;;;;;355427;151;859113;-58
2021/12/30 02:35:05;;;;;;;68.36;27.24;;;;;;;;;;352127;150;865383;-58
2021/12/30 02:36:07;;;;;;;71.37;30.29;;;;;;;;;;351545;150;857403;-58
2021/12/30 02:37:10;;;;;;;69.14;28.85;;;;;;;;;;352200;151;858818;-58
2021/12/30 02:38:12;;;;;;;69.31;28.36;;;;;;;;;;348740;151;864953;-59
2021/12/30 02:39:14;;;;;;;67.09;28.90;;;;;;;;;;353012;151;857203;-59
2021/12/30 02:40:26;;;;;;;70.71;29.36;;;;;;;;;;350543;150;857269;-59
2021/12/30 02:41:32;;;;;;;76.08;29.79;;;;;;;;;;354889;151;864949;-59
2021/12/30 02:42:31;;;;;;;75.38;29.24;;;;;;;;;;353291;150;859716;-58
2021/12/30 02:43:33;;;;;;;70.42;30.29;;;;;;;;;;352552;150;864948;-58
2021/12/30 02:44:35;;;;;;;63.51;26.51;;;;;;;;;;350650;150;867754;-58
2021/12/30 02:45:37;;;;;;;72.91;28.93;;;;;;;;;;350133;151;862236;-58
2021/12/30 02:46:40;;;;;;;69.40;30.96;;;;;;;;;;352764;150;859047;-58
2021/12/30 02:47:41;;;;;;;73.26;29.89;;;;;;;;;;352579;150;865688;-58
2021/12/30 02:48:43;;;;;;;72.09;30.46;;;;;;;;;;354330;149;857299;-58
2021/12/30 02:49:44;;;;;;;71.44;28.29;;;;;;;;;;354155;150;860217;-57
2021/12/30 02:50:46;;;;;;;69.54;29.01;;;;;;;;;;353691;150;860993;-58
2021/12/30 02:51:48;;;;;;;74.55;29.39;;;;;;;;;;354078;151;864840;-58
2021/12/30 02:52:49;;;;;;;79.83;30.61;;;;;;;;;;354189;151;857318;-58
2021/12/30 02:53:51;;;;;;;75.96;30.14;;;;;;;;;;352110;150;859009;-58
2021/12/30 02:54:53;;;;;;;68.15;30.01;;;;;;;;;;351850;150;859153;-58
2021/12/30 02:55:54;;;;;;;71.83;30.12;;;;;;;;;;352163;151;865035;-58
2021/12/30 02:56:56;;;;;;;69.55;29.83;;;;;;;;;;354267;150;857274;-60
2021/12/30 02:57:57;;;;;;;73.94;31.55;;;;;;;;;;353556;150;858555;-59
2021/12/30 02:58:59;;;;;;;79.06;30.30;;;;;;;;;;353506;151;864625;-59
2021/12/30 03:00:00;;;;;;;71.19;30.40;;;;;;;;;;349807;151;866556;-59
2021/12/30 03:01:06;;;;;;;62.75;27.84;;;;;;;;;;346828;153;856838;-59
2021/12/30 03:02:08;;;;;;;67.09;28.79;;;;;;;;;;347617;153;866263;-59
2021/12/30 03:03:19;;;;;;;72.59;30.96;;;;;;;;;;340476;157;858920;-59
2021/12/30 03:04:21;;;;;;;68.68;29.58;;;;;;;;;;345292;154;864828;-59
2021/12/30 03:05:24;;;;;;;66.81;28.60;;;;;;;;;;344635;152;857268;-59
2021/12/30 03:06:25;;;;;;;75.46;28.93;;;;;;;;;;346354;154;865035;-59
2021/12/30 03:07:28;;;;;;;66.39;29.02;;;;;;;;;;343677;153;857190;-59
2021/12/30 03:08:30;;;;;;;81.05;30.76;;;;;;;;;;345402;153;864979;-59
2021/12/30 03:09:31;;;;;;;72.60;28.73;;;;;;;;;;348146;153;859284;-57
2021/12/30 03:10:33;;;;;;;77.99;31.91;;;;;;;;;;350115;153;864937;-58
2021/12/30 03:11:35;;;;;;;75.14;31.01;;;;;;;;;;349099;153;859924;-60
2021/12/30 03:12:36;;;;;;;80.86;32.71;;;;;;;;;;345266;154;862601;-60
2021/12/30 03:13:41;;;;;;;77.83;32.14;;;;;;;;;;343651;154;865558;-58
2021/12/30 03:14:41;;;;;;;72.45;30.76;;;;;;;;;;347112;153;863135;-59
2021/12/30 03:15:45;;;;;;;83.29;31.57;;;;;;;;;;349106;152;858062;-59
2021/12/30 03:16:47;;;;;;;73.65;31.22;;;;;;;;;;349244;153;864853;-58
2021/12/30 03:17:49;;;;;;;78.76;30.76;;;;;;;;;;349048;153;857843;-59
2021/12/30 03:18:51;;;;;;;75.91;31.12;;;;;;;;;;350612;153;865007;-58
2021/12/30 03:19:53;;;;;;;77.51;31.38;;;;;;;;;;349197;152;857805;-57
2021/12/30 03:20:55;;;;;;;74.62;29.98;;;;;;;;;;350130;150;864521;-58
2021/12/30 03:21:56;;;;;;;78.57;31.88;;;;;;;;;;349706;150;857157;-58
2021/12/30 03:22:58;;;;;;;70.52;30.21;;;;;;;;;;349360;152;864887;-57
2021/12/30 03:24:00;;;;;;;69.51;30.61;;;;;;;;;;348748;152;864952;-59
2021/12/30 03:25:02;;;;;;;65.75;29.49;;;;;;;;;;346895;153;860569;-58
2021/12/30 03:26:04;;;;;;;75.73;29.60;;;;;;;;;;347466;152;858947;-58
2021/12/30 03:27:06;;;;;;;71.14;28.61;;;;;;;;;;341690;155;858318;-58
2021/12/30 03:28:07;;;;;;;70.77;28.53;;;;;;;;;;345211;155;858917;-58
2021/12/30 03:29:09;;;;;;;66.99;27.58;;;;;;;;;;342245;153;858261;-59
2021/12/30 03:30:13;;;;;;;65.22;28.92;;;;;;;;;;342864;153;859828;-59
2021/12/30 03:31:15;;;;;;;70.00;29.24;;;;;;;;;;344605;153;857655;-58
2021/12/30 03:32:16;;;;;;;63.57;26.10;;;;;;;;;;342517;154;858769;-59
2021/12/30 03:33:20;;;;;;;67.60;28.87;;;;;;;;;;348444;151;857355;-58
2021/12/30 03:34:21;;;;;;;65.95;28.06;;;;;;;;;;347637;152;864958;-59
2021/12/30 03:35:23;;;;;;;70.74;29.32;;;;;;;;;;346349;153;865920;-55
2021/12/30 03:36:25;;;;;;;66.39;28.93;;;;;;;;;;344156;153;864949;-59
2021/12/30 03:37:27;;;;;;;67.63;28.92;;;;;;;;;;342171;153;856229;-58
2021/12/30 03:38:29;;;;;;;68.87;29.25;;;;;;;;;;347686;152;857168;-59
2021/12/30 03:39:31;;;;;;;66.79;29.77;;;;;;;;;;349513;153;864923;-58
2021/12/30 03:40:33;;;;;;;73.83;30.10;;;;;;;;;;347243;152;857288;-56
2021/12/30 03:41:35;;;;;;;59.02;27.95;;;;;;;;;;347922;152;857325;-58
2021/12/30 03:42:37;;;;;;;66.35;28.85;;;;;;;;;;347279;154;864805;-58
2021/12/30 03:43:38;;;;;;;74.29;30.43;;;;;;;;;;345581;153;857266;-58
2021/12/30 03:44:40;;;;;;;70.52;30.56;;;;;;;;;;346705;154;857330;-58
2021/12/30 03:45:41;;;;;;;76.74;32.34;;;;;;;;;;344484;153;857061;-58
2021/12/30 03:46:43;;;;;;;74.11;31.44;;;;;;;;;;347572;154;858539;-59
2021/12/30 03:47:46;;;;;;;76.80;30.49;;;;;;;;;;347789;154;864656;-58
2021/12/30 03:48:47;;;;;;;76.21;30.32;;;;;;;;;;345040;152;858779;-58
2021/12/30 03:49:49;;;;;;;77.99;30.75;;;;;;;;;;344717;154;858120;-58
2021/12/30 03:50:52;;;;;;;65.81;26.09;;;;;;;;;;343363;156;865416;-61
2021/12/30 03:51:54;;;;;;;76.00;28.26;;;;;;;;;;345435;153;865204;-59
2021/12/30 03:52:58;;;;;;;68.51;29.69;;;;;;;;;;348200;152;857634;-58
2021/12/30 03:53:59;;;;;;;72.14;30.86;;;;;;;;;;342119;155;866593;-58
2021/12/30 03:55:01;;;;;;;69.10;29.64;;;;;;;;;;343845;154;855979;-57
2021/12/30 03:56:04;;;;;;;45.43;19.31;;;;;;;;;;345003;154;866727;-58
2021/12/30 03:57:05;;;;;;;67.38;27.54;;;;;;;;;;346023;155;864000;-58
2021/12/30 03:58:07;;;;;;;61.09;27.84;;;;;;;;;;344679;155;866837;-57
2021/12/30 03:59:09;;;;;;;68.54;28.94;;;;;;;;;;348341;153;865118;-56
2021/12/30 04:00:11;;;;;;;62.29;27.15;;;;;;;;;;347470;152;857254;-58
2021/12/30 04:01:14;;;;;;;66.55;28.92;;;;;;;;;;343361;153;857404;-58
2021/12/30 04:02:15;;;;;;;64.05;29.15;;;;;;;;;;342572;153;857358;-59
2021/12/30 04:03:17;;;;;;;69.78;29.19;;;;;;;;;;341592;155;864864;-58
2021/12/30 04:04:18;;;;;;;56.26;24.19;;;;;;;;;;348534;153;866725;-59
2021/12/30 04:05:20;;;;;;;57.32;27.05;;;;;;;;;;346329;153;859032;-58
2021/12/30 04:06:22;;;;;;;64.96;28.22;;;;;;;;;;348381;152;857772;-60
2021/12/30 04:07:24;;;;;;;66.70;29.11;;;;;;;;;;348996;152;857164;-60
2021/12/30 04:08:25;;;;;;;63.49;28.64;;;;;;;;;;345419;153;857435;-59
2021/12/30 04:09:27;;;;;;;66.52;28.31;;;;;;;;;;355053;150;866085;-60
2021/12/30 04:10:29;;;;;;;63.91;28.23;;;;;;;;;;355245;149;864867;-60
2021/12/30 04:11:33;;;;;;;63.71;28.30;;;;;;;;;;356618;149;857163;-60
2021/12/30 04:12:33;;;;;;;69.25;27.90;;;;;;;;;;355709;150;864974;-59
2021/12/30 04:13:35;;;;;;;64.79;27.92;;;;;;;;;;355945;149;858112;-58
2021/12/30 04:14:38;;;;;;;71.84;28.84;;;;;;;;;;355139;149;865001;-58
2021/12/30 04:15:40;;;;;;;68.15;28.42;;;;;;;;;;357167;150;857438;-58
2021/12/30 04:16:42;;;;;;;68.03;30.07;;;;;;;;;;356438;149;856388;-59
2021/12/30 04:17:43;;;;;;;67.69;27.89;;;;;;;;;;356560;149;866452;-59
2021/12/30 04:18:48;;;;;;;67.30;28.76;;;;;;;;;;356525;149;863469;-59
2021/12/30 04:19:50;;;;;;;65.32;28.48;;;;;;;;;;357638;150;858198;-56
2021/12/30 04:20:51;;;;;;;71.70;28.91;;;;;;;;;;356989;149;857275;-57
2021/12/30 04:21:55;;;;;;;73.41;29.29;;;;;;;;;;358284;149;858207;-58
2021/12/30 04:22:56;;;;;;;71.74;29.54;;;;;;;;;;353257;149;858740;-57
2021/12/30 04:23:58;;;;;;;65.17;28.49;;;;;;;;;;355769;150;857177;-58
2021/12/30 04:24:59;;;;;;;72.05;28.57;;;;;;;;;;354325;149;859070;-57
2021/12/30 04:26:01;;;;;;;69.79;28.84;;;;;;;;;;355104;150;865105;-58
2021/12/30 04:27:02;;;;;;;62.96;29.29;;;;;;;;;;353130;150;862450;-58
2021/12/30 04:28:04;;;;;;;57.56;26.64;;;;;;;;;;354701;149;856886;-59
2021/12/30 04:29:05;;;;;;;61.37;26.98;;;;;;;;;;355250;149;856358;-58
2021/12/30 04:30:08;;;;;;;62.03;28.13;;;;;;;;;;354998;150;858683;-58
2021/12/30 04:31:10;;;;;;;56.33;24.99;;;;;;;;;;355575;150;860005;-59
2021/12/30 04:32:11;;;;;;;52.36;23.81;;;;;;;;;;356177;149;858872;-59
2021/12/30 04:33:13;;;;;;;72.43;27.81;;;;;;;;;;356363;149;864709;-58
2021/12/30 04:34:15;;;;;;;67.15;28.63;;;;;;;;;;356728;150;866873;-58
2021/12/30 04:35:16;;;;;;;62.75;27.56;;;;;;;;;;355764;150;857486;-58
2021/12/30 04:36:18;;;;;;;62.13;27.46;;;;;;;;;;355214;149;866343;-58
2021/12/30 04:37:20;;;;;;;63.54;26.59;;;;;;;;;;354351;150;857678;-58
2021/12/30 04:38:24;;;;;;;60.67;26.44;;;;;;;;;;354580;150;859054;-59
2021/12/30 04:39:27;;;;;;;62.38;26.42;;;;;;;;;;354819;149;860074;-58
2021/12/30 04:40:28;;;;;;;70.08;29.49;;;;;;;;;;354139;150;864896;-60
2021/12/30 04:41:31;;;;;;;61.05;26.27;;;;;;;;;;353452;149;858787;-59
2021/12/30 04:42:32;;;;;;;58.03;25.35;;;;;;;;;;355619;149;857387;-59
2021/12/30 04:43:34;;;;;;;58.71;24.95;;;;;;;;;;355977;149;865707;-58
2021/12/30 04:44:35;;;;;;;63.96;26.21;;;;;;;;;;355243;149;864810;-59
2021/12/30 04:45:37;;;;;;;64.29;25.79;;;;;;;;;;354266;150;857329;-59
2021/12/30 04:46:38;;;;;;;63.51;25.98;;;;;;;;;;354192;149;865674;-59
2021/12/30 04:47:40;;;;;;;59.81;24.33;;;;;;;;;;356064;149;859579;-60
2021/12/30 04:48:42;;;;;;;58.55;26.11;;;;;;;;;;356002;150;865721;-59
2021/12/30 04:49:44;;;;;;;63.19;26.17;;;;;;;;;;355274;150;857473;-58
2021/12/30 04:50:45;;;;;;;54.61;24.94;;;;;;;;;;355168;149;859022;-58
2021/12/30 04:51:47;;;;;;;61.67;27.32;;;;;;;;;;356866;150;865927;-59
2021/12/30 04:52:49;;;;;;;67.74;27.22;;;;;;;;;;355569;150;864012;-60
2021/12/30 04:53:50;;;;;;;56.84;24.58;;;;;;;;;;356529;149;865282;-60
2021/12/30 04:54:52;;;;;;;65.02;24.19;;;;;;;;;;356323;149;858338;-59
2021/12/30 04:55:54;;;;;;;59.09;25.28;;;;;;;;;;357163;149;864771;-58
2021/12/30 04:56:55;;;;;;;63.49;24.61;;;;;;;;;;354669;150;856329;-57
2021/12/30 04:57:57;;;;;;;54.89;23.38;;;;;;;;;;356709;149;863868;-58
2021/12/30 04:58:59;;;;;;;57.05;23.41;;;;;;;;;;355826;150;856618;-59
2021/12/30 05:00:00;;;;;;;59.21;22.68;;;;;;;;;;357414;150;864448;-58
2021/12/30 05:01:02;;;;;;;60.73;22.31;;;;;;;;;;355353;150;857360;-62
2021/12/30 05:02:04;;;;;;;60.99;23.58;;;;;;;;;;355529;149;856318;-58
2021/12/30 05:03:11;;;;;;;53.61;22.11;;;;;;;;;;355462;150;856317;-57
2021/12/30 05:04:12;;;;;;;54.02;22.65;;;;;;;;;;355293;150;856617;-59
2021/12/30 05:05:14;;;;;;;52.91;22.13;;;;;;;;;;342334;153;857222;-59
2021/12/30 05:06:16;;;;;;;51.70;22.61;;;;;;;;;;355161;150;864908;-58
2021/12/30 05:07:17;;;;;;;49.56;22.53;;;;;;;;;;354912;150;857115;-62
2021/12/30 05:08:19;;;;;;;54.79;21.88;;;;;;;;;;354700;149;860050;-60
2021/12/30 05:09:21;;;;;;;50.27;23.25;;;;;;;;;;355354;149;857218;-59
2021/12/30 05:10:24;;;;;;;54.84;23.32;;;;;;;;;;355636;150;857289;-59
2021/12/30 05:11:26;;;;;;;50.59;22.06;;;;;;;;;;355595;149;857287;-57
2021/12/30 05:12:27;;;;;;;56.01;22.94;;;;;;;;;;354612;149;866764;-59
2021/12/30 05:13:29;;;;;;;54.52;22.44;;;;;;;;;;357384;150;857594;-63
2021/12/30 05:14:30;;;;;;;49.44;22.66;;;;;;;;;;354349;150;861805;-60
2021/12/30 05:15:32;;;;;;;56.81;23.72;;;;;;;;;;355804;149;862838;-62
2021/12/30 05:16:34;;;;;;;52.91;21.89;;;;;;;;;;355638;149;864426;-58
2021/12/30 05:17:36;;;;;;;52.69;22.35;;;;;;;;;;355900;150;857321;-60
2021/12/30 05:18:37;;;;;;;54.61;21.39;;;;;;;;;;356898;150;860210;-61
2021/12/30 05:19:39;;;;;;;47.84;20.69;;;;;;;;;;357477;149;866319;-61
2021/12/30 05:20:41;;;;;;;51.50;22.22;;;;;;;;;;356541;149;866701;-61
2021/12/30 05:21:42;;;;;;;53.35;22.82;;;;;;;;;;357155;150;867848;-59
2021/12/30 05:22:44;;;;;;;50.03;21.19;;;;;;;;;;354745;149;862702;-57
2021/12/30 05:23:45;;;;;;;54.24;23.20;;;;;;;;;;354078;149;856436;-58
2021/12/30 05:24:47;;;;;;;51.70;21.87;;;;;;;;;;358063;150;859354;-58
2021/12/30 05:25:48;;;;;;;52.66;21.60;;;;;;;;;;357460;149;859898;-62
2021/12/30 05:26:50;;;;;;;53.53;21.32;;;;;;;;;;356073;149;865043;-59
2021/12/30 05:27:52;;;;;;;52.83;22.97;;;;;;;;;;352569;150;864976;-57
2021/12/30 05:28:54;;;;;;;49.51;20.62;;;;;;;;;;348409;152;864974;-61
2021/12/30 05:29:55;;;;;;;53.27;21.21;;;;;;;;;;356546;149;861860;-61
2021/12/30 05:30:57;;;;;;;45.55;21.03;;;;;;;;;;355683;149;856453;-62
2021/12/30 05:31:59;;;;;;;47.66;20.74;;;;;;;;;;356102;149;859359;-59
2021/12/30 05:33:00;;;;;;;45.52;18.64;;;;;;;;;;354658;150;863737;-59
2021/12/30 05:34:02;;;;;;;48.29;21.81;;;;;;;;;;348614;152;864922;-60
2021/12/30 05:35:04;;;;;;;43.56;17.74;;;;;;;;;;343621;154;864951;-60
2021/12/30 05:36:06;;;;;;;48.23;20.62;;;;;;;;;;355952;150;862515;-60
2021/12/30 05:37:08;;;;;;;47.04;20.62;;;;;;;;;;355310;150;859504;-60
2021/12/30 05:38:09;;;;;;;46.24;19.16;;;;;;;;;;355213;149;865068;-59
2021/12/30 05:39:11;;;;;;;42.69;19.53;;;;;;;;;;356514;150;857156;-61
2021/12/30 05:40:16;;;;;;;39.91;18.51;;;;;;;;;;356438;150;860158;-62
2021/12/30 05:41:17;;;;;;;42.82;19.11;;;;;;;;;;355199;149;866480;-60
2021/12/30 05:42:22;;;;;;;46.29;21.04;;;;;;;;;;357115;149;857766;-60
2021/12/30 05:43:23;;;;;;;47.66;19.86;;;;;;;;;;355600;150;857187;-59
2021/12/30 05:44:24;;;;;;;46.00;19.63;;;;;;;;;;356038;148;859135;-60
2021/12/30 05:45:26;;;;;;;48.55;20.67;;;;;;;;;;354615;149;857206;-62
2021/12/30 05:46:28;;;;;;;52.91;21.11;;;;;;;;;;354888;150;866696;-60
2021/12/30 05:47:30;;;;;;;42.26;19.76;;;;;;;;;;356303;150;857289;-59
2021/12/30 05:48:31;;;;;;;51.76;20.41;;;;;;;;;;356151;149;863700;-62
2021/12/30 05:49:33;;;;;;;62.56;24.37;;;;;;;;;;356671;150;864952;-61
2021/12/30 05:50:34;;;;;;;60.67;24.18;;;;;;;;;;356433;150;864855;-62
2021/12/30 05:51:36;;;;;;;47.35;22.04;;;;;;;;;;354326;149;858196;-62
2021/12/30 05:52:38;;;;;;;52.56;20.66;;;;;;;;;;356664;149;865022;-61
2021/12/30 05:53:39;;;;;;;48.33;20.93;;;;;;;;;;356419;150;859534;-59
2021/12/30 05:54:41;;;;;;;43.92;20.05;;;;;;;;;;355557;150;857423;-66
2021/12/30 05:55:43;;;;;;;47.96;20.35;;;;;;;;;;355188;149;865044;-59
2021/12/30 05:56:44;;;;;;;44.24;20.23;;;;;;;;;;352470;150;865033;-60